createdAt,value
2023-03-16T00:01:27.576Z,99454.31
2023-03-16T00:06:30.414Z,99445.66
2023-03-16T00:11:32.628Z,99455.84
2023-03-16T00:16:35.754Z,99452.41
2023-03-16T00:21:37.938Z,99449.72
2023-03-16T00:26:40.081Z,99445.94
2023-03-16T00:31:45.682Z,99457.06
2023-03-16T00:36:48.345Z,99426.13
2023-03-16T00:41:50.504Z,99441.00
2023-03-16T00:46:53.333Z,99442.72
2023-03-16T00:51:55.457Z,99428.63
2023-03-16T00:56:57.998Z,99440.00
2023-03-16T01:02:15.598Z,99455.31
2023-03-16T01:07:18.070Z,99438.00
2023-03-16T01:12:20.611Z,99448.06
2023-03-16T01:17:24.333Z,99444.09
2023-03-16T01:22:27.238Z,99430.16
2023-03-16T01:27:29.423Z,99422.75
2023-03-16T01:32:31.716Z,99445.41
2023-03-16T01:37:33.898Z,99412.84
2023-03-16T01:42:47.310Z,99459.25
2023-03-16T01:47:50.275Z,99445.25
2023-03-16T01:52:52.640Z,99423.78
2023-03-16T01:57:55.884Z,99433.84
2023-03-16T02:03:06.226Z,99444.97
2023-03-16T02:08:10.071Z,99440.28
2023-03-16T02:13:12.626Z,99428.50
2023-03-16T02:18:15.473Z,99445.16
2023-03-16T02:23:21.406Z,99450.25
2023-03-16T02:28:58.492Z,99453.41
2023-03-16T02:34:03.254Z,99451.38
2023-03-16T02:39:06.258Z,99455.69
2023-03-16T02:44:19.482Z,99481.00
2023-03-16T02:49:27.067Z,99481.69
2023-03-16T02:54:29.228Z,99495.09
2023-03-16T02:59:31.615Z,99492.81
2023-03-16T03:04:33.879Z,99478.34
2023-03-16T03:09:36.077Z,99504.56
2023-03-16T03:14:39.068Z,99505.78
2023-03-16T03:19:41.546Z,99504.75
2023-03-16T03:24:44.175Z,99508.63
2023-03-16T03:29:46.379Z,99528.03
2023-03-16T03:34:48.494Z,99528.84
2023-03-16T03:39:50.718Z,99517.94
2023-03-16T03:44:53.481Z,99537.09
2023-03-16T03:49:55.849Z,99522.50
2023-03-16T03:54:58.020Z,99523.31
2023-03-16T04:00:00.243Z,99556.53
2023-03-16T04:05:02.449Z,99533.03
2023-03-16T04:10:05.484Z,99556.53
2023-03-16T04:15:07.985Z,99548.91
2023-03-16T04:20:14.848Z,99561.69
2023-03-16T04:25:19.250Z,99571.19
2023-03-16T04:30:21.536Z,99556.53
2023-03-16T04:35:23.644Z,99560.66
2023-03-16T04:40:26.731Z,99573.41
2023-03-16T04:45:29.057Z,99586.03
2023-03-16T04:50:31.441Z,99590.53
2023-03-16T04:55:34.007Z,99595.91
2023-03-16T05:00:36.112Z,99597.75
2023-03-16T05:05:40.115Z,99630.97
2023-03-16T05:10:42.599Z,99619.63
2023-03-16T05:15:44.808Z,99614.69
2023-03-16T05:20:49.448Z,99630.19
2023-03-16T05:25:51.870Z,99641.13
2023-03-16T05:30:54.134Z,99635.94
2023-03-16T05:35:58.363Z,99633.44
2023-03-16T05:41:04.653Z,99628.28
2023-03-16T05:46:07.948Z,99667.31
2023-03-16T05:51:10.136Z,99656.56
2023-03-16T05:56:12.517Z,99678.44
2023-03-16T06:01:15.931Z,99670.81
2023-03-16T06:06:19.685Z,99655.97
2023-03-16T06:11:21.984Z,99698.47
2023-03-16T06:16:24.924Z,99721.16
2023-03-16T06:21:27.248Z,99717.88
2023-03-16T06:26:29.508Z,99716.63
2023-03-16T06:31:31.673Z,99745.31
2023-03-16T06:36:34.355Z,99751.72
2023-03-16T06:41:36.506Z,99747.38
2023-03-16T06:46:38.838Z,99741.41
2023-03-16T06:51:42.169Z,99746.97
2023-03-16T06:56:46.403Z,99764.72
2023-03-16T07:01:50.573Z,99756.06
2023-03-16T07:06:52.822Z,99773.41
2023-03-16T07:11:54.977Z,99777.53
2023-03-16T07:16:57.290Z,99761.22
2023-03-16T07:21:59.814Z,99793.03
2023-03-16T07:27:02.872Z,99774.25
2023-03-16T07:32:05.480Z,99804.97
2023-03-16T07:37:08.946Z,99808.88
2023-03-16T07:42:11.072Z,99805.34
2023-03-16T07:47:14.000Z,99830.19
2023-03-16T07:52:16.178Z,99834.50
2023-03-16T07:57:18.445Z,99835.31
2023-03-16T08:02:22.133Z,99854.09
2023-03-16T08:07:24.799Z,99843.69
2023-03-16T08:12:27.137Z,99848.50
2023-03-16T08:17:29.428Z,99866.09
2023-03-16T08:22:31.512Z,99841.50
2023-03-16T08:27:34.717Z,99866.06
2023-03-16T08:32:38.132Z,99868.53
2023-03-16T08:37:41.742Z,99860.69
2023-03-16T08:42:45.295Z,99850.19
2023-03-16T08:47:47.426Z,99873.13
2023-03-16T08:52:49.651Z,99884.88
2023-03-16T08:57:52.641Z,99889.41
2023-03-16T09:02:55.813Z,99889.00
2023-03-16T09:07:58.035Z,99894.16
2023-03-16T09:13:00.764Z,99905.78
2023-03-16T09:18:04.656Z,99906.16
2023-03-16T09:23:06.881Z,99919.38
2023-03-16T09:28:09.196Z,99914.91
2023-03-16T09:33:11.491Z,99927.28
2023-03-16T09:38:14.613Z,99945.88
2023-03-16T09:43:38.617Z,99936.38
2023-03-16T09:48:41.542Z,99926.84
2023-03-16T09:53:45.994Z,99933.47
2023-03-16T09:58:48.349Z,99927.69
2023-03-16T10:04:12.660Z,99948.13
2023-03-16T10:09:36.519Z,99966.53
2023-03-16T10:15:22.664Z,99956.00
2023-03-16T10:20:27.869Z,99937.00
2023-03-16T10:25:49.638Z,99966.97
2023-03-16T10:30:55.777Z,99973.56
2023-03-16T10:36:29.995Z,99982.44
2023-03-16T10:41:35.563Z,99971.28
2023-03-16T10:46:48.904Z,99972.31
2023-03-16T10:51:52.599Z,99991.56
2023-03-16T10:56:56.657Z,99989.63
2023-03-16T11:01:58.775Z,99986.75
2023-03-16T11:07:01.760Z,99979.69
2023-03-16T11:12:30.589Z,100002.88
2023-03-16T11:17:40.184Z,99997.72
2023-03-16T11:22:48.859Z,99996.66
2023-03-16T11:28:26.366Z,99994.66
2023-03-16T11:33:31.393Z,99969.00
2023-03-16T11:38:44.542Z,99977.09
2023-03-16T11:43:53.081Z,99996.91
2023-03-16T11:49:19.443Z,99993.41
2023-03-16T11:54:44.753Z,99966.50
2023-03-16T12:00:24.853Z,99989.25
2023-03-16T12:05:49.505Z,99990.72
2023-03-16T12:11:05.036Z,100000.66
2023-03-16T12:16:39.029Z,99982.22
2023-03-16T12:22:01.879Z,99966.28
2023-03-16T12:27:07.175Z,100013.25
2023-03-16T12:32:22.865Z,99999.44
2023-03-16T12:37:47.867Z,100018.63
2023-03-16T12:43:11.033Z,100015.91
2023-03-16T12:48:27.506Z,100016.53
2023-03-16T12:53:44.054Z,100034.72
2023-03-16T12:58:49.795Z,100018.78
2023-03-16T13:04:02.462Z,100013.22
2023-03-16T13:09:08.431Z,100044.28
2023-03-16T13:14:32.849Z,100027.94
2023-03-16T13:19:38.437Z,100016.81
2023-03-16T13:24:53.904Z,100056.94
2023-03-16T13:30:02.334Z,100039.34
2023-03-16T13:35:06.366Z,100051.75
2023-03-16T13:45:54.252Z,100041.41
2023-03-16T13:50:58.199Z,100068.50
2023-03-16T13:56:02.620Z,100069.16
2023-03-16T14:01:19.619Z,100046.19
2023-03-16T14:06:26.331Z,100077.63
2023-03-16T14:11:28.908Z,100059.44
2023-03-16T14:16:32.326Z,100067.66
2023-03-16T14:21:35.957Z,100066.06
2023-03-16T14:26:46.721Z,100077.00
2023-03-16T14:31:48.990Z,100053.84
2023-03-16T14:36:51.461Z,100071.19
2023-03-16T14:41:53.881Z,100070.56
2023-03-16T14:47:00.298Z,100067.50
2023-03-16T14:52:32.429Z,100081.16
2023-03-16T14:57:35.198Z,100067.09
2023-03-16T15:02:37.490Z,100080.31
2023-03-16T15:07:41.557Z,100090.66
2023-03-16T15:12:54.315Z,100070.56
2023-03-16T15:17:56.581Z,100099.28
2023-03-16T15:22:59.903Z,100102.66
2023-03-16T15:28:03.189Z,100107.34
2023-03-16T15:33:06.379Z,100114.78
2023-03-16T15:38:22.890Z,100126.34
2023-03-16T15:43:29.188Z,100133.44
2023-03-16T15:48:32.190Z,100140.81
2023-03-16T15:53:42.120Z,100141.66
2023-03-16T15:58:47.019Z,100150.25
2023-03-16T16:03:50.284Z,100161.78
2023-03-16T16:08:52.734Z,100141.31
2023-03-16T16:13:58.476Z,100135.75
2023-03-16T16:19:01.031Z,100154.50
2023-03-16T16:24:03.588Z,100159.22
2023-03-16T16:29:17.295Z,100172.88
2023-03-16T16:34:22.608Z,100190.44
2023-03-16T16:39:25.031Z,100192.47
2023-03-16T16:44:34.422Z,100209.22
2023-03-16T16:49:38.403Z,100211.63
2023-03-16T16:54:40.567Z,100218.34
2023-03-16T16:59:45.947Z,100220.00
2023-03-16T17:04:48.292Z,100207.94
2023-03-16T17:09:51.293Z,100236.56
2023-03-16T17:14:54.069Z,100241.16
2023-03-16T17:19:56.217Z,100249.06
2023-03-16T17:24:58.956Z,100264.84
2023-03-16T17:30:01.242Z,100270.91
2023-03-16T17:35:06.492Z,100278.78
2023-03-16T17:40:18.274Z,100277.28
2023-03-16T17:45:25.084Z,100289.28
2023-03-16T17:50:30.108Z,100299.41
2023-03-16T17:55:32.704Z,100319.63
2023-03-16T18:00:37.057Z,100320.19
2023-03-16T18:05:40.052Z,100337.34
2023-03-16T18:10:43.999Z,100324.81
2023-03-16T18:15:47.500Z,100337.59
2023-03-16T18:20:52.433Z,100325.91
2023-03-16T18:25:57.009Z,100352.25
2023-03-16T18:30:59.915Z,100364.47
2023-03-16T18:36:05.357Z,100377.94
2023-03-16T18:41:28.551Z,100374.28
2023-03-16T18:46:36.757Z,100387.38
2023-03-16T18:51:39.486Z,100400.28
2023-03-16T18:56:41.930Z,100372.72
2023-03-16T19:01:45.644Z,100409.78
2023-03-16T19:06:49.672Z,100408.88
2023-03-16T19:11:52.441Z,100419.66
2023-03-16T19:16:55.937Z,100421.06
2023-03-16T19:22:15.609Z,100422.97
2023-03-16T19:27:24.223Z,100438.19
2023-03-16T19:32:27.027Z,100435.72
2023-03-16T19:37:30.364Z,100432.38
2023-03-16T19:42:37.332Z,100434.75
2023-03-16T19:47:39.506Z,100443.47
2023-03-16T19:52:42.286Z,100445.19
2023-03-16T19:57:45.889Z,100459.69
2023-03-16T20:02:48.779Z,100436.59
2023-03-16T20:07:51.106Z,100465.63
2023-03-16T20:13:02.021Z,100466.94
2023-03-16T20:18:05.570Z,100477.13
2023-03-16T20:23:28.706Z,100466.47
2023-03-16T20:28:36.681Z,100469.22
2023-03-16T20:33:38.880Z,100467.66
2023-03-16T20:38:41.749Z,100500.09
2023-03-16T20:43:44.692Z,100477.47
2023-03-16T20:48:47.335Z,100504.56
2023-03-16T20:53:50.768Z,100484.69
2023-03-16T20:58:56.719Z,100487.75
2023-03-16T21:04:00.402Z,100508.53
2023-03-16T21:09:03.713Z,100508.16
2023-03-16T21:14:12.776Z,100516.13
2023-03-16T21:19:18.060Z,100518.44
2023-03-16T21:24:20.730Z,100518.81
2023-03-16T21:29:24.504Z,100512.31
2023-03-16T21:34:37.709Z,100505.06
2023-03-16T21:39:40.697Z,100503.47
2023-03-16T21:44:42.946Z,100525.81
2023-03-16T21:49:45.042Z,100507.72
2023-03-16T21:54:47.872Z,100505.38
2023-03-16T21:59:50.773Z,100515.06
2023-03-16T22:04:53.972Z,100488.53
2023-03-16T22:09:56.257Z,100490.50
2023-03-16T22:14:58.469Z,100495.84
2023-03-16T22:20:00.639Z,100489.38
2023-03-16T22:25:04.538Z,100518.13
2023-03-16T22:30:09.885Z,100502.56
2023-03-16T22:35:26.843Z,100514.88
2023-03-16T22:40:32.592Z,100514.00
2023-03-16T22:45:36.336Z,100512.50
2023-03-16T22:50:38.738Z,100508.22
2023-03-16T22:55:41.320Z,100519.94
2023-03-16T23:00:45.073Z,100503.06
2023-03-16T23:05:47.394Z,100495.06
2023-03-16T23:10:51.903Z,100525.09
2023-03-16T23:15:55.648Z,100528.94
2023-03-16T23:20:57.785Z,100530.41
2023-03-16T23:26:00.594Z,100537.28
2023-03-16T23:31:03.174Z,100548.28
2023-03-16T23:36:14.572Z,100541.97
2023-03-16T23:41:21.978Z,100537.97
2023-03-16T23:46:26.424Z,100531.38
2023-03-16T23:51:31.473Z,100540.88
2023-03-16T23:56:34.218Z,100544.00
